logo
Search for airport 
image banner adimage banner adimage banner ad
image banner ad

EYZA - Zarasai

Located in Zarasai, Lithuania

ICAO - EYZA, IATA -

Data provided by Airmate  

General information

Coordinates: N55°45'6" E26°15'43"
Elevation is 570 feet MSL.
Magnetic variation is 8° East
View others Airports in Utena County

Operational data

Special qualification required
Current time UTC:
Current local time:
Weather at : - ( 0 km )
METAR: LWSK 140220Z VRB02KT CAVOK 10/08 Q1025 NOSIG
View NOTAMs / SUP AIP / TFR affecting this airport [VIEW]
Communications frequencies: [VIEW]

Runways:

RWY identifierQFULength (ft)Width (ft)SurfaceLDA (ft)
0227°1444131GRASS
20207°1444131GRASS

Airport contact information

Address: Zarasai Lithuania

Satellite view of EYZA